Time;durP1;ratioP1;P1;durP2;ratioP2;P2;SDS_P1;SDS_P2;PMS_P1;PMS_P2;Temp;Humidity;BMP_temperature;BMP_pressure;BME280_temperature;BME280_humidity;BME280_pressure;Samples;Min_cycle;Max_cycle;Signal;HPM_P1;HPM_P2
2022/01/31 00:02:24;;;;;;;22.45;4.05;;;2.80;99.90;;;;;;2585117;54;20786;31
2022/01/31 00:05:01;;;;;;;18.85;3.20;;;2.80;99.90;;;;;;2585749;54;20077;31
2022/01/31 00:07:38;;;;;;;21.13;3.83;;;2.80;99.90;;;;;;2603851;46;20921;31
2022/01/31 00:10:15;;;;;;;23.70;3.55;;;2.70;99.90;;;;;;2585842;54;20933;31
2022/01/31 00:13:01;;;;;;;24.17;5.53;;;2.70;99.90;;;;;;2585690;54;20927;31
2022/01/31 00:15:42;;;;;;;15.52;3.25;;;2.70;99.90;;;;;;2586005;54;20026;31
2022/01/31 00:18:17;;;;;;;21.20;4.10;;;2.60;99.90;;;;;;2585601;54;20081;31
2022/01/31 00:20:51;;;;;;;18.13;3.85;;;2.50;99.90;;;;;;2585636;54;20026;31
2022/01/31 00:23:30;;;;;;;19.23;3.92;;;2.50;99.90;;;;;;2586079;54;20910;31
2022/01/31 00:26:02;;;;;;;15.40;3.33;;;2.50;99.90;;;;;;2585632;54;20089;31
2022/01/31 00:28:41;;;;;;;15.10;2.95;;;2.40;99.90;;;;;;2585858;54;20036;31
2022/01/31 00:31:14;;;;;;;22.85;3.40;;;2.40;99.90;;;;;;2585617;54;20068;31
2022/01/31 00:33:50;;;;;;;22.00;4.00;;;2.40;99.90;;;;;;2604468;46;21095;31
2022/01/31 00:36:30;;;;;;;22.90;3.70;;;2.30;99.90;;;;;;2585246;54;20852;31
2022/01/31 00:39:09;;;;;;;18.80;3.60;;;2.30;99.90;;;;;;2585676;54;20060;31
2022/01/31 00:41:45;;;;;;;22.63;3.27;;;2.40;99.90;;;;;;2604500;46;20060;31
2022/01/31 00:44:37;;;;;;;23.38;3.70;;;2.30;99.90;;;;;;2585606;54;21095;31
2022/01/31 00:47:23;;;;;;;21.40;3.57;;;2.20;99.90;;;;;;2585874;54;20921;31
2022/01/31 00:50:06;;;;;;;19.25;2.70;;;2.20;99.90;;;;;;2702215;39;20458;31
2022/01/31 00:52:46;;;;;;;15.93;2.83;;;2.20;99.90;;;;;;2585992;54;20058;31
2022/01/31 00:55:28;;;;;;;23.43;3.13;;;2.20;99.90;;;;;;2585601;54;20034;31
2022/01/31 00:58:03;;;;;;;20.75;3.30;;;2.20;99.90;;;;;;2585738;54;20297;31
2022/01/31 01:00:41;;;;;;;28.60;3.85;;;2.20;99.90;;;;;;2584733;54;20110;31
2022/01/31 01:03:15;;;;;;;18.63;3.17;;;2.20;99.90;;;;;;2585615;54;20048;31
2022/01/31 01:05:51;;;;;;;19.08;2.78;;;2.20;99.90;;;;;;2702023;39;22645;31
2022/01/31 01:08:30;;;;;;;26.35;3.45;;;2.20;99.90;;;;;;2585574;54;19934;31
2022/01/31 01:11:09;;;;;;;15.60;2.75;;;2.20;99.90;;;;;;2604144;46;20247;31
2022/01/31 01:13:49;;;;;;;15.07;2.90;;;2.10;99.90;;;;;;2585659;54;20096;31
2022/01/31 01:16:23;;;;;;;15.60;2.85;;;2.20;99.90;;;;;;2585553;54;20112;31
2022/01/31 01:19:02;;;;;;;15.50;2.95;;;2.10;99.90;;;;;;2585282;54;20994;31
2022/01/31 01:21:40;;;;;;;22.45;3.90;;;2.20;99.90;;;;;;2585506;54;20111;31
2022/01/31 01:24:15;;;;;;;19.23;3.58;;;2.20;99.90;;;;;;2604076;46;21846;31
2022/01/31 01:26:50;;;;;;;17.55;3.70;;;2.20;99.90;;;;;;2599555;46;20030;31
2022/01/31 01:29:29;;;;;;;19.35;2.78;;;2.20;99.90;;;;;;2585654;54;19957;31
2022/01/31 01:32:06;;;;;;;10.37;2.53;;;2.20;99.90;;;;;;2585522;54;20861;31
2022/01/31 01:34:46;;;;;;;24.30;3.30;;;2.30;99.90;;;;;;2584667;54;21009;31
2022/01/31 01:37:22;;;;;;;15.17;2.40;;;2.30;99.90;;;;;;2585199;54;21127;31
2022/01/31 01:39:57;;;;;;;21.25;3.05;;;2.30;99.90;;;;;;2584539;54;20086;31
2022/01/31 01:42:33;;;;;;;10.90;2.40;;;2.40;99.90;;;;;;2584700;54;20034;31
2022/01/31 01:45:10;;;;;;;15.97;2.77;;;2.40;99.90;;;;;;2595335;46;20762;31
2022/01/31 01:47:47;;;;;;;16.80;2.70;;;2.40;99.90;;;;;;2596152;46;20937;31
2022/01/31 01:50:24;;;;;;;20.10;2.60;;;2.40;99.90;;;;;;2585573;54;20053;31
2022/01/31 01:53:01;;;;;;;19.55;2.85;;;2.40;99.90;;;;;;2585837;54;21009;31
2022/01/31 01:55:36;;;;;;;17.35;2.45;;;2.40;99.90;;;;;;2585623;54;21388;31
2022/01/31 01:58:17;;;;;;;16.13;2.30;;;2.40;99.90;;;;;;2585323;54;20829;31
2022/01/31 02:01:02;;;;;;;23.38;3.50;;;2.50;99.90;;;;;;2585454;54;20026;31
2022/01/31 02:03:56;;;;;;;17.08;2.88;;;2.50;99.90;;;;;;2585295;54;20085;31
2022/01/31 02:06:42;;;;;;;17.05;3.05;;;2.50;99.90;;;;;;2585542;54;20946;31
2022/01/31 02:09:22;;;;;;;19.13;3.40;;;2.50;99.90;;;;;;2585533;54;20891;31
2022/01/31 02:11:57;;;;;;;16.50;3.00;;;2.50;99.90;;;;;;2585572;54;20072;31
2022/01/31 02:14:32;;;;;;;15.07;2.73;;;2.50;99.90;;;;;;2584882;54;20034;31
2022/01/31 02:17:31;;;;;;;18.93;2.53;;;2.50;99.90;;;;;;2585596;54;20048;31
2022/01/31 02:20:15;;;;;;;20.40;3.55;;;2.50;99.90;;;;;;2585032;54;20231;31
2022/01/31 02:22:59;;;;;;;20.45;3.30;;;2.50;99.90;;;;;;2585354;54;20038;31
2022/01/31 02:25:56;;;;;;;21.33;3.07;;;2.60;99.90;;;;;;2585358;54;20966;31
2022/01/31 02:28:53;;;;;;;15.23;3.70;;;2.60;99.90;;;;;;2585357;54;20107;31
2022/01/31 02:31:31;;;;;;;16.35;3.20;;;2.60;99.90;;;;;;2585038;54;21047;31
2022/01/31 02:34:04;;;;;;;21.17;3.17;;;2.60;99.90;;;;;;2585170;54;20929;31
2022/01/31 02:36:38;;;;;;;17.90;3.00;;;2.70;99.90;;;;;;2585287;54;20235;31
2022/01/31 02:39:18;;;;;;;22.77;3.07;;;2.60;99.90;;;;;;2585407;54;21009;31
2022/01/31 02:41:53;;;;;;;17.55;3.00;;;2.70;99.90;;;;;;2682528;39;21920;31
2022/01/31 02:44:26;;;;;;;15.80;3.50;;;2.70;99.90;;;;;;2585125;54;20809;31
2022/01/31 02:47:25;;;;;;;26.50;3.93;;;2.70;99.90;;;;;;2585242;54;20979;31
2022/01/31 02:50:06;;;;;;;22.77;3.90;;;2.60;99.90;;;;;;2585634;54;20037;31
2022/01/31 02:52:47;;;;;;;15.18;3.15;;;2.70;99.90;;;;;;2585228;54;20085;31
2022/01/31 02:55:21;;;;;;;24.55;3.30;;;2.70;99.90;;;;;;2585583;54;22465;31
2022/01/31 02:58:02;;;;;;;21.30;3.97;;;2.70;99.90;;;;;;2584271;54;21008;31
2022/01/31 03:00:39;;;;;;;17.35;2.80;;;2.60;99.90;;;;;;2584192;54;20054;31
2022/01/31 03:03:20;;;;;;;18.50;2.97;;;2.70;99.90;;;;;;2585235;54;20890;31
2022/01/31 03:05:58;;;;;;;18.85;2.70;;;2.70;99.90;;;;;;2585206;54;20984;31
2022/01/31 03:08:35;;;;;;;23.35;3.50;;;2.70;99.90;;;;;;2585301;54;20800;31
2022/01/31 03:11:32;;;;;;;22.80;2.97;;;2.60;99.90;;;;;;2603805;46;20984;31
2022/01/31 03:14:19;;;;;;;23.05;3.05;;;2.70;99.90;;;;;;2585333;54;21130;31
2022/01/31 03:16:56;;;;;;;23.45;3.90;;;2.60;99.90;;;;;;2585387;54;20050;31
2022/01/31 03:19:42;;;;;;;19.20;3.35;;;2.70;99.90;;;;;;2603894;46;20892;31
2022/01/31 03:22:19;;;;;;;22.60;4.40;;;2.70;99.90;;;;;;2585112;54;20186;31
2022/01/31 03:24:52;;;;;;;17.88;3.88;;;2.60;99.90;;;;;;2604059;46;21872;31
2022/01/31 03:27:26;;;;;;;18.00;3.43;;;2.70;99.90;;;;;;2602088;46;20825;31
2022/01/31 03:30:03;;;;;;;23.30;3.43;;;2.70;99.90;;;;;;2584234;54;21026;31
2022/01/31 03:32:39;;;;;;;20.90;3.93;;;2.70;99.90;;;;;;2584953;54;20254;31
2022/01/31 03:35:14;;;;;;;23.23;3.72;;;2.70;99.90;;;;;;2585176;54;20116;31
2022/01/31 03:37:47;;;;;;;24.40;3.50;;;2.70;99.90;;;;;;2683207;39;21109;31
2022/01/31 03:40:26;;;;;;;20.13;4.60;;;2.70;99.90;;;;;;2584936;54;20031;31
2022/01/31 03:43:03;;;;;;;21.98;4.10;;;2.70;99.90;;;;;;2683242;39;21220;31
2022/01/31 03:45:39;;;;;;;20.75;3.85;;;2.70;99.90;;;;;;2585214;54;20030;31
2022/01/31 03:48:28;;;;;;;21.15;3.50;;;2.60;99.90;;;;;;2584947;54;20053;31
2022/01/31 03:51:09;;;;;;;22.90;3.70;;;2.60;99.90;;;;;;2603660;47;20034;31
2022/01/31 03:53:52;;;;;;;21.10;2.90;;;2.60;99.90;;;;;;2584286;54;20054;31
2022/01/31 03:56:28;;;;;;;17.92;4.32;;;2.60;99.90;;;;;;2603497;47;20899;31
2022/01/31 03:59:28;;;;;;;24.75;4.10;;;2.60;99.90;;;;;;2603477;47;20781;31
2022/01/31 04:02:07;;;;;;;14.40;2.73;;;2.60;99.90;;;;;;2584863;54;21190;31
2022/01/31 04:04:41;;;;;;;17.90;4.03;;;2.60;99.90;;;;;;2585414;54;21151;31
2022/01/31 04:07:17;;;;;;;20.67;3.83;;;2.60;99.90;;;;;;2584498;54;20966;31
2022/01/31 04:09:55;;;;;;;18.75;3.30;;;2.60;99.90;;;;;;2585165;54;21169;31
2022/01/31 04:12:29;;;;;;;21.85;3.80;;;2.60;99.90;;;;;;2584489;54;20883;31
2022/01/31 04:15:10;;;;;;;18.87;3.23;;;2.60;99.90;;;;;;2585125;54;20049;31
2022/01/31 04:20:16;;;;;;;21.23;4.10;;;2.70;99.90;;;;;;2603349;47;20940;31
2022/01/31 04:22:58;;;;;;;23.10;4.75;;;2.70;99.90;;;;;;2584893;54;20026;31
2022/01/31 04:25:42;;;;;;;28.00;4.70;;;2.70;99.90;;;;;;2584817;54;20054;31
2022/01/31 04:30:52;;;;;;;20.23;4.00;;;2.80;99.90;;;;;;2603714;47;20026;31
2022/01/31 04:33:26;;;;;;;27.30;3.55;;;2.80;99.90;;;;;;2585209;54;21582;31
2022/01/31 04:36:01;;;;;;;23.75;4.05;;;2.70;99.90;;;;;;2585077;54;20145;31
2022/01/31 04:38:35;;;;;;;24.17;3.28;;;2.70;99.90;;;;;;2584814;54;20053;31
2022/01/31 04:41:15;;;;;;;22.30;4.80;;;2.70;99.90;;;;;;2584870;54;20204;31
2022/01/31 04:43:53;;;;;;;17.95;4.15;;;2.70;99.90;;;;;;2683579;39;22448;31
2022/01/31 04:49:01;;;;;;;22.10;4.17;;;2.70;99.90;;;;;;2683095;39;21735;31
2022/01/31 04:51:35;;;;;;;25.10;3.63;;;2.70;99.90;;;;;;2585572;54;20992;31
2022/01/31 04:54:08;;;;;;;25.70;5.40;;;2.70;99.90;;;;;;2584752;54;20112;31
2022/01/31 04:56:50;;;;;;;21.33;4.35;;;2.70;99.90;;;;;;2584789;54;20062;31
2022/01/31 04:59:23;;;;;;;25.83;4.28;;;2.70;99.90;;;;;;2585343;54;20030;31
2022/01/31 05:04:33;;;;;;;24.70;4.13;;;2.70;99.90;;;;;;2585618;54;20833;31
2022/01/31 05:07:07;;;;;;;19.63;4.38;;;2.70;99.90;;;;;;2585586;54;20033;31
2022/01/31 05:09:44;;;;;;;25.70;4.90;;;2.70;99.90;;;;;;2585770;54;20073;31
2022/01/31 05:12:21;;;;;;;20.00;3.80;;;2.70;99.90;;;;;;2585683;54;20084;31
2022/01/31 05:15:00;;;;;;;24.75;4.80;;;2.70;99.90;;;;;;2585894;54;20858;31
2022/01/31 05:17:33;;;;;;;31.50;4.50;;;2.70;99.90;;;;;;2604068;46;20906;31
2022/01/31 05:20:10;;;;;;;20.50;4.00;;;2.70;99.90;;;;;;2585693;54;20987;31
2022/01/31 05:22:50;;;;;;;25.27;5.38;;;2.70;99.90;;;;;;2585389;54;20966;31
2022/01/31 05:25:28;;;;;;;23.77;4.63;;;2.70;99.90;;;;;;2585584;54;20088;31
2022/01/31 05:28:09;;;;;;;24.35;3.95;;;2.70;99.90;;;;;;2585839;54;20866;31
2022/01/31 05:30:44;;;;;;;23.80;4.10;;;2.70;99.90;;;;;;2585810;54;20062;31
2022/01/31 05:33:21;;;;;;;19.85;4.50;;;2.70;99.90;;;;;;2585671;54;20938;31
2022/01/31 05:35:55;;;;;;;26.15;5.00;;;2.60;99.90;;;;;;2585384;54;20960;31
2022/01/31 05:38:37;;;;;;;22.25;4.15;;;2.60;99.90;;;;;;2585795;54;20033;31
2022/01/31 05:41:18;;;;;;;31.50;4.75;;;2.70;99.90;;;;;;2585631;54;20960;31
2022/01/31 05:44:01;;;;;;;31.20;4.90;;;2.70;99.90;;;;;;2585068;54;20939;31
2022/01/31 05:46:41;;;;;;;29.40;5.05;;;2.70;99.90;;;;;;2584699;54;20954;31
2022/01/31 05:49:20;;;;;;;19.55;4.65;;;2.70;99.90;;;;;;2585463;54;20034;31
2022/01/31 05:51:57;;;;;;;18.02;4.32;;;2.70;99.90;;;;;;2604173;46;20926;31
2022/01/31 05:54:35;;;;;;;19.60;3.30;;;2.70;99.90;;;;;;2585170;54;20104;31
2022/01/31 05:57:09;;;;;;;26.42;4.55;;;2.70;99.90;;;;;;2604194;46;20050;31
2022/01/31 05:59:51;;;;;;;22.50;4.20;;;2.70;99.90;;;;;;2683431;39;21428;31
2022/01/31 06:02:30;;;;;;;16.77;4.43;;;2.70;99.90;;;;;;2585396;54;21189;31
2022/01/31 06:05:10;;;;;;;30.45;5.25;;;2.70;99.90;;;;;;2585759;54;21152;31
2022/01/31 06:07:45;;;;;;;15.60;3.47;;;2.70;99.90;;;;;;2585229;54;20033;31
2022/01/31 06:10:22;;;;;;;23.48;4.13;;;2.70;99.90;;;;;;2585041;54;20027;31
2022/01/31 06:12:57;;;;;;;20.80;5.88;;;2.70;99.90;;;;;;2585268;54;20112;31
2022/01/31 06:15:36;;;;;;;23.73;5.43;;;2.70;99.90;;;;;;2585278;54;20026;31
2022/01/31 06:18:19;;;;;;;20.17;4.75;;;2.70;99.90;;;;;;2584515;54;20247;31
2022/01/31 06:20:55;;;;;;;29.92;4.72;;;2.70;99.90;;;;;;2584401;54;20782;31
2022/01/31 06:23:31;;;;;;;26.10;4.63;;;2.70;99.90;;;;;;2584532;54;20856;31
2022/01/31 06:26:09;;;;;;;34.25;5.35;;;2.70;99.90;;;;;;2585346;54;20869;31
2022/01/31 06:28:45;;;;;;;27.15;5.07;;;2.60;99.90;;;;;;2585153;54;20166;31
2022/01/31 06:31:43;;;;;;;25.05;5.15;;;2.70;99.90;;;;;;2585194;54;20038;31
2022/01/31 06:34:23;;;;;;;23.10;4.35;;;2.70;99.90;;;;;;2585510;54;20892;31
2022/01/31 06:36:57;;;;;;;27.75;7.95;;;2.70;99.90;;;;;;2585608;54;20934;31
2022/01/31 06:39:31;;;;;;;46.38;19.70;;;2.80;99.90;;;;;;2585262;54;20968;31
2022/01/31 06:42:09;;;;;;;39.58;17.42;;;2.70;99.90;;;;;;2584972;54;20064;31
2022/01/31 06:44:44;;;;;;;30.20;8.65;;;2.70;99.90;;;;;;2585428;54;20959;31
2022/01/31 06:47:21;;;;;;;23.15;5.45;;;2.70;99.90;;;;;;2585545;54;21956;31
2022/01/31 06:50:04;;;;;;;24.80;5.05;;;2.70;99.90;;;;;;2585282;54;20034;31
2022/01/31 06:52:38;;;;;;;22.20;5.20;;;2.70;99.90;;;;;;2683759;39;21038;31
2022/01/31 06:55:19;;;;;;;32.22;5.03;;;2.70;99.90;;;;;;2585524;54;20936;31
2022/01/31 06:57:59;;;;;;;25.60;4.97;;;2.60;99.90;;;;;;2603736;46;20918;31
2022/01/31 07:00:34;;;;;;;35.13;5.25;;;2.70;99.90;;;;;;2585229;54;20116;31
2022/01/31 07:03:12;;;;;;;37.70;6.47;;;2.70;99.90;;;;;;2584992;54;20038;31
2022/01/31 07:05:52;;;;;;;21.58;5.72;;;2.60;99.90;;;;;;2585079;54;20049;31
2022/01/31 07:08:28;;;;;;;26.50;5.90;;;2.70;99.90;;;;;;2585086;54;19941;31
2022/01/31 07:14:07;;;;;;;27.38;5.70;;;2.70;99.90;;;;;;2585114;54;20038;31
2022/01/31 07:16:46;;;;;;;26.63;5.47;;;2.70;99.90;;;;;;2603937;46;20053;31
2022/01/31 07:19:22;;;;;;;27.95;5.70;;;2.70;99.90;;;;;;2584208;54;20137;31
2022/01/31 07:22:03;;;;;;;27.60;4.38;;;2.70;99.90;;;;;;2585216;54;21193;31
2022/01/31 07:25:01;;;;;;;28.00;4.73;;;2.80;99.90;;;;;;2585165;54;21000;31
2022/01/31 07:27:33;;;;;;;36.73;5.70;;;2.70;99.90;;;;;;2585112;54;20037;31
2022/01/31 07:30:12;;;;;;;28.30;6.10;;;2.70;99.90;;;;;;2585389;54;20029;31
2022/01/31 07:32:47;;;;;;;30.55;7.35;;;2.80;99.90;;;;;;2585010;54;20203;31
2022/01/31 07:35:24;;;;;;;24.00;5.70;;;2.70;99.90;;;;;;2603660;46;20033;31
2022/01/31 07:38:03;;;;;;;34.25;6.10;;;2.70;99.90;;;;;;2603404;46;20053;31
2022/01/31 07:43:13;;;;;;;29.83;6.07;;;2.80;99.90;;;;;;2585067;54;20946;31
2022/01/31 07:45:52;;;;;;;22.40;6.00;;;2.80;99.90;;;;;;2588319;46;20092;31
2022/01/31 07:48:29;;;;;;;25.87;6.37;;;2.80;99.90;;;;;;2584811;54;20879;31
2022/01/31 07:51:08;;;;;;;29.40;5.40;;;2.80;99.90;;;;;;2603462;47;20030;31
2022/01/31 07:53:48;;;;;;;30.20;6.95;;;2.80;99.90;;;;;;2585144;54;20895;31
2022/01/31 07:56:22;;;;;;;26.55;5.60;;;2.80;99.90;;;;;;2585051;54;20049;31
2022/01/31 07:58:55;;;;;;;29.10;6.10;;;2.80;99.90;;;;;;2584610;54;20919;31
2022/01/31 08:01:35;;;;;;;33.08;6.10;;;2.90;99.90;;;;;;2584962;54;20030;31
2022/01/31 08:04:10;;;;;;;28.83;7.50;;;2.90;99.90;;;;;;2584809;54;20097;31
2022/01/31 08:06:44;;;;;;;25.75;6.90;;;2.90;99.90;;;;;;2586671;47;20749;31
2022/01/31 08:09:23;;;;;;;33.42;6.50;;;2.90;99.90;;;;;;2585206;54;20816;31
2022/01/31 08:11:58;;;;;;;31.83;7.00;;;2.90;99.90;;;;;;2584857;54;20938;31
2022/01/31 08:14:36;;;;;;;27.93;7.20;;;3.00;99.90;;;;;;2584242;54;20030;31
2022/01/31 08:17:16;;;;;;;32.20;6.43;;;3.00;99.90;;;;;;2584653;54;21180;31
2022/01/31 08:20:07;;;;;;;27.60;6.60;;;3.10;99.90;;;;;;2585900;54;20839;31
2022/01/31 08:22:40;;;;;;;22.95;5.30;;;3.10;99.90;;;;;;2586007;54;20046;31
2022/01/31 08:25:18;;;;;;;24.75;5.47;;;3.10;99.90;;;;;;2585532;54;20838;31
2022/01/31 08:28:09;;;;;;;21.67;4.65;;;3.10;99.90;;;;;;2585740;54;20943;31
2022/01/31 08:30:52;;;;;;;27.03;4.70;;;3.10;99.90;;;;;;2604293;46;20956;31
2022/01/31 08:33:37;;;;;;;28.20;5.15;;;3.20;99.90;;;;;;2585914;54;20027;31
2022/01/31 08:36:16;;;;;;;29.30;5.78;;;3.20;99.90;;;;;;2585956;54;20049;31
2022/01/31 08:38:52;;;;;;;28.33;5.57;;;3.20;99.90;;;;;;2585738;54;20065;31
2022/01/31 08:41:31;;;;;;;26.93;5.50;;;3.20;99.90;;;;;;2753463;31;20624;31
2022/01/31 08:44:06;;;;;;;35.25;6.30;;;3.20;99.90;;;;;;2584780;54;20034;31
2022/01/31 08:46:42;;;;;;;32.10;8.50;;;3.20;99.90;;;;;;2585544;54;20588;31
2022/01/31 08:49:19;;;;;;;35.50;8.40;;;3.30;99.90;;;;;;2585648;54;20904;31
2022/01/31 08:51:56;;;;;;;30.70;7.10;;;3.30;99.90;;;;;;2684037;39;21086;31
2022/01/31 08:54:30;;;;;;;41.25;9.20;;;3.30;99.90;;;;;;2585740;54;22035;31
2022/01/31 08:59:56;;;;;;;32.63;7.40;;;3.40;99.90;;;;;;2585722;54;20033;31
2022/01/31 09:02:40;;;;;;;35.60;6.15;;;3.40;99.90;;;;;;2585786;54;20799;31
2022/01/31 09:05:19;;;;;;;27.90;5.30;;;3.50;99.90;;;;;;2603723;46;20056;31
2022/01/31 09:08:02;;;;;;;22.60;5.33;;;3.50;99.90;;;;;;2585397;54;21091;31
2022/01/31 09:13:17;;;;;;;22.25;5.85;;;3.50;99.90;;;;;;2585657;54;20797;31
2022/01/31 09:15:59;;;;;;;17.95;5.25;;;3.60;99.90;;;;;;2585680;54;20191;31
2022/01/31 09:18:37;;;;;;;26.40;6.35;;;3.60;99.90;;;;;;2604506;46;20026;31
2022/01/31 09:21:15;;;;;;;25.95;5.45;;;3.60;99.90;;;;;;2585689;54;20026;31
2022/01/31 09:23:53;;;;;;;31.45;5.80;;;3.70;99.90;;;;;;2594436;46;20056;31
2022/01/31 09:26:31;;;;;;;28.40;6.30;;;3.60;99.90;;;;;;2585587;54;20940;31
2022/01/31 09:29:12;;;;;;;25.85;5.95;;;3.70;99.90;;;;;;2585643;54;20870;31
2022/01/31 09:31:53;;;;;;;24.20;5.50;;;3.70;99.90;;;;;;2585801;54;20050;31
2022/01/31 09:34:37;;;;;;;26.05;5.50;;;3.80;99.90;;;;;;2585810;54;20915;31
2022/01/31 09:37:13;;;;;;;29.05;5.70;;;3.80;99.90;;;;;;2585526;54;20122;31
2022/01/31 09:39:50;;;;;;;22.97;5.17;;;3.80;99.90;;;;;;2603786;46;20806;31
2022/01/31 09:42:32;;;;;;;29.75;7.50;;;3.90;99.90;;;;;;2584586;54;20799;31
2022/01/31 09:45:17;;;;;;;34.00;6.60;;;3.90;99.90;;;;;;2585331;54;20983;31
2022/01/31 09:50:51;;;;;;;22.90;6.32;;;3.90;99.90;;;;;;2585486;54;20994;31
2022/01/31 09:53:27;;;;;;;34.60;6.23;;;3.90;99.90;;;;;;2604029;46;20056;31
2022/01/31 09:56:02;;;;;;;27.00;6.15;;;3.90;99.90;;;;;;2585327;54;20273;31
2022/01/31 09:58:38;;;;;;;26.98;5.78;;;3.90;99.90;;;;;;2585644;54;20803;31
2022/01/31 10:01:14;;;;;;;29.70;5.85;;;3.90;99.90;;;;;;2585049;54;20093;31
2022/01/31 10:03:58;;;;;;;27.73;5.90;;;4.00;99.90;;;;;;2585243;54;20026;31
2022/01/31 10:06:37;;;;;;;24.25;5.30;;;3.90;99.90;;;;;;2585485;54;20931;31
2022/01/31 10:09:16;;;;;;;27.33;6.20;;;4.00;99.90;;;;;;2585405;54;20847;31
2022/01/31 10:11:56;;;;;;;26.02;5.45;;;4.00;99.90;;;;;;2585433;54;20085;31
2022/01/31 10:17:25;;;;;;;25.20;5.65;;;3.90;99.90;;;;;;2603941;46;20062;31
2022/01/31 10:20:28;;;;;;;36.95;7.65;;;4.00;99.90;;;;;;2585235;54;20860;31
2022/01/31 10:23:09;;;;;;;19.77;5.17;;;4.00;99.90;;;;;;2585338;54;20026;31
2022/01/31 10:26:08;;;;;;;30.73;6.55;;;4.00;99.90;;;;;;2584946;54;21326;31
2022/01/31 10:28:45;;;;;;;26.43;5.00;;;4.00;99.90;;;;;;2585020;54;20037;31
2022/01/31 10:31:17;;;;;;;24.10;5.57;;;4.00;99.90;;;;;;2585180;54;20059;31
2022/01/31 10:34:19;;;;;;;19.85;5.60;;;4.10;99.90;;;;;;2585327;54;20129;31
2022/01/31 10:37:03;;;;;;;19.70;5.13;;;4.10;99.90;;;;;;2585251;54;20026;31
2022/01/31 10:45:48;;;;;;;33.40;9.35;;;4.10;99.90;;;;;;2585231;54;20137;31
2022/01/31 10:54:43;;;;;;;26.17;6.60;;;4.30;99.90;;;;;;2603364;46;20791;31
2022/01/31 10:57:21;;;;;;;30.92;7.85;;;4.20;99.90;;;;;;2585410;54;21017;31
2022/01/31 11:00:01;;;;;;;26.67;5.85;;;4.30;99.90;;;;;;2585163;54;20032;31
2022/01/31 11:02:39;;;;;;;33.20;6.38;;;4.30;99.90;;;;;;2585252;54;20026;31
2022/01/31 11:05:29;;;;;;;22.10;5.90;;;4.20;99.90;;;;;;2585197;54;20023;31
2022/01/31 11:08:03;;;;;;;27.53;6.57;;;4.30;99.90;;;;;;2585197;54;20068;31
2022/01/31 11:10:40;;;;;;;31.55;6.45;;;4.30;99.90;;;;;;2683402;39;22336;31
2022/01/31 11:13:18;;;;;;;27.23;6.55;;;4.30;99.90;;;;;;2603901;46;21084;31
2022/01/31 11:15:51;;;;;;;;;;;4.30;99.90;;;;;;2603398;46;20088;31
2022/01/31 11:18:28;;;;;;;23.08;5.88;;;4.30;99.90;;;;;;2603357;46;19941;31
2022/01/31 11:21:08;;;;;;;24.15;6.88;;;4.40;99.90;;;;;;2603668;46;20945;31
2022/01/31 11:23:49;;;;;;;28.65;9.75;;;4.30;99.90;;;;;;2584898;54;20123;31
2022/01/31 11:26:36;;;;;;;42.70;10.20;;;4.40;99.90;;;;;;2585158;54;20793;31
2022/01/31 11:29:14;;;;;;;37.47;8.27;;;4.50;99.90;;;;;;2603668;46;20929;31
2022/01/31 11:31:48;;;;;;;26.85;7.00;;;4.50;99.90;;;;;;2603730;46;20031;31
2022/01/31 11:34:25;;;;;;;27.15;6.32;;;4.50;99.90;;;;;;2585193;54;20857;31
2022/01/31 11:36:58;;;;;;;22.03;5.40;;;4.60;99.90;;;;;;2603814;46;21161;31
2022/01/31 11:39:35;;;;;;;24.85;5.75;;;4.60;99.90;;;;;;2584672;54;20904;31
2022/01/31 11:42:17;;;;;;;35.17;6.63;;;4.70;99.90;;;;;;2584171;54;20030;31
2022/01/31 11:44:54;;;;;;;33.20;6.72;;;4.70;99.90;;;;;;2584890;54;20768;31
2022/01/31 11:47:28;;;;;;;27.90;5.63;;;4.70;99.90;;;;;;2603164;46;20085;31
2022/01/31 11:50:02;;;;;;;22.25;5.60;;;4.70;99.90;;;;;;2585109;54;20054;31
2022/01/31 11:52:44;;;;;;;37.83;7.18;;;4.70;99.90;;;;;;2585525;54;21312;31
2022/01/31 11:55:24;;;;;;;34.50;8.40;;;4.70;99.90;;;;;;2604304;46;20967;31
2022/01/31 11:58:02;;;;;;;27.45;6.85;;;4.70;99.90;;;;;;2603934;46;20027;31
2022/01/31 12:00:38;;;;;;;26.53;6.93;;;4.70;99.90;;;;;;2585623;54;20057;31
2022/01/31 12:03:14;;;;;;;26.20;6.40;;;4.70;99.90;;;;;;2585613;54;20088;31
2022/01/31 12:05:48;;;;;;;45.17;7.95;;;4.70;99.90;;;;;;2604003;46;21030;31
2022/01/31 12:08:23;;;;;;;26.73;6.85;;;4.70;99.90;;;;;;2604158;46;20097;31
2022/01/31 12:11:15;;;;;;;125.32;16.13;;;4.70;99.90;;;;;;2585733;54;20026;31
2022/01/31 12:14:06;;;;;;;131.40;17.88;;;4.70;99.90;;;;;;2586051;54;20917;31
2022/01/31 12:19:59;;;;;;;27.15;6.70;;;4.70;99.90;;;;;;2585332;54;20763;31
2022/01/31 12:22:44;;;;;;;33.72;7.20;;;4.70;99.90;;;;;;2604050;46;20049;31
2022/01/31 12:25:29;;;;;;;36.25;6.70;;;4.60;99.90;;;;;;2585701;54;20032;31
2022/01/31 12:28:20;;;;;;;31.50;7.63;;;4.60;99.90;;;;;;2585955;54;20910;31
2022/01/31 12:31:00;;;;;;;22.15;6.55;;;4.60;99.90;;;;;;2585708;54;20046;31
2022/01/31 12:33:50;;;;;;;33.25;7.15;;;4.70;99.90;;;;;;2585667;54;20715;31
2022/01/31 12:36:50;;;;;;;69.05;12.35;;;4.70;99.90;;;;;;2604085;46;20119;31
2022/01/31 12:40:06;;;;;;;39.33;8.00;;;4.70;99.90;;;;;;2585406;54;20026;31
2022/01/31 12:46:20;;;;;;;27.85;5.60;;;4.70;99.90;;;;;;2585794;54;20768;31
2022/01/31 12:49:12;;;;;;;130.37;18.13;;;4.80;99.90;;;;;;2585770;54;20098;31
2022/01/31 12:51:58;;;;;;;57.45;9.05;;;4.80;99.90;;;;;;2585319;54;21053;31
2022/01/31 12:54:31;;;;;;;35.47;6.77;;;4.80;99.90;;;;;;2585520;54;21049;31
2022/01/31 12:57:06;;;;;;;28.00;6.55;;;4.80;99.90;;;;;;2585749;54;20969;31
2022/01/31 12:59:39;;;;;;;27.65;6.95;;;4.80;99.90;;;;;;2585546;54;20057;31
2022/01/31 13:02:15;;;;;;;23.33;6.03;;;4.80;99.90;;;;;;2585719;54;20031;31
2022/01/31 13:04:52;;;;;;;;;;;4.90;99.90;;;;;;2585527;54;20931;31
2022/01/31 13:07:42;;;;;;;30.15;5.25;;;4.90;99.90;;;;;;2604326;46;19961;31
2022/01/31 13:10:19;;;;;;;25.20;5.40;;;4.90;99.90;;;;;;2585419;54;20791;31
2022/01/31 13:13:01;;;;;;;29.20;5.53;;;4.90;99.90;;;;;;2585805;54;21160;31
2022/01/31 13:15:38;;;;;;;31.20;6.50;;;4.90;99.90;;;;;;2604096;46;20026;31
2022/01/31 13:18:12;;;;;;;26.83;5.20;;;4.90;99.90;;;;;;2585753;54;20869;31
2022/01/31 13:20:51;;;;;;;20.70;6.00;;;5.00;99.90;;;;;;2585415;54;20930;31
2022/01/31 13:23:31;;;;;;;31.30;5.15;;;5.00;99.90;;;;;;2585710;54;20874;31
2022/01/31 13:26:10;;;;;;;27.77;6.00;;;5.00;99.90;;;;;;2584408;54;20111;31
2022/01/31 13:28:42;;;;;;;23.20;5.20;;;5.00;99.90;;;;;;2585865;54;22617;31
2022/01/31 13:31:15;;;;;;;25.85;5.45;;;5.00;99.90;;;;;;2585608;54;20053;31
2022/01/31 13:33:55;;;;;;;40.10;7.03;;;5.00;99.90;;;;;;2585630;54;20956;31
2022/01/31 13:36:33;;;;;;;29.15;6.60;;;5.00;99.90;;;;;;2585786;54;20026;31
2022/01/31 13:39:17;;;;;;;28.08;7.10;;;5.10;99.90;;;;;;2604097;46;20053;31
2022/01/31 13:41:54;;;;;;;27.30;5.60;;;5.10;99.90;;;;;;2585507;54;20034;31
2022/01/31 13:44:30;;;;;;;25.05;6.60;;;5.10;99.90;;;;;;2585310;54;21146;31
2022/01/31 13:47:04;;;;;;;23.50;5.85;;;5.00;99.90;;;;;;2585502;54;20026;31
2022/01/31 13:49:50;;;;;;;25.10;6.30;;;5.10;99.90;;;;;;2585605;54;20089;31
2022/01/31 13:52:33;;;;;;;23.27;5.93;;;5.00;99.90;;;;;;2603538;46;22529;31
2022/01/31 13:55:06;;;;;;;28.45;6.15;;;5.00;99.90;;;;;;2585533;54;20100;31
2022/01/31 13:57:39;;;;;;;28.65;5.45;;;5.00;99.90;;;;;;2603929;46;20837;31
2022/01/31 14:00:19;;;;;;;26.45;6.35;;;5.00;99.90;;;;;;2585480;54;20067;31
2022/01/31 14:02:54;;;;;;;29.58;5.43;;;5.00;99.90;;;;;;2585452;54;20053;31
2022/01/31 14:05:27;;;;;;;29.60;5.53;;;5.00;99.90;;;;;;2585375;54;21007;31
2022/01/31 14:08:08;;;;;;;27.35;5.45;;;5.00;99.90;;;;;;2585378;54;20030;31
2022/01/31 14:10:56;;;;;;;27.73;5.83;;;5.00;99.90;;;;;;2603829;46;20034;31
2022/01/31 14:13:33;;;;;;;20.70;5.00;;;5.00;99.90;;;;;;2585499;54;20057;31
2022/01/31 14:16:12;;;;;;;20.20;5.80;;;5.00;99.90;;;;;;2584880;54;20994;31
2022/01/31 14:18:50;;;;;;;29.10;7.50;;;4.90;99.90;;;;;;2585315;54;20054;31
2022/01/31 14:24:13;;;;;;;35.47;6.60;;;4.90;99.90;;;;;;2585453;54;22737;31
2022/01/31 14:27:06;;;;;;;23.75;5.85;;;4.90;99.90;;;;;;2585077;54;20846;31
2022/01/31 14:29:41;;;;;;;30.30;7.50;;;4.80;99.90;;;;;;2585391;54;20049;31
2022/01/31 14:32:14;;;;;;;29.40;9.60;;;4.80;99.90;;;;;;2585490;54;20891;31
2022/01/31 14:34:50;;;;;;;35.95;10.95;;;4.80;99.90;;;;;;2585154;54;20053;31
2022/01/31 14:37:32;;;;;;;34.22;9.48;;;4.70;99.90;;;;;;2584242;54;20968;31
2022/01/31 14:40:26;;;;;;;32.20;10.45;;;4.70;99.90;;;;;;2583816;54;20053;31
2022/01/31 14:43:13;;;;;;;35.95;14.30;;;4.70;99.90;;;;;;2584275;54;20982;31
2022/01/31 14:48:37;;;;;;;37.80;13.25;;;4.70;99.90;;;;;;2585040;54;20768;31
2022/01/31 14:51:24;;;;;;;48.30;16.40;;;4.60;99.90;;;;;;2585287;54;20782;31
2022/01/31 14:53:59;;;;;;;51.10;14.05;;;4.60;99.90;;;;;;2585217;54;20053;31